sensor_id;sensor_type;location;lat;lon;timestamp;temperature;humidity
40868;DHT22;26586;50.708;22.412;2022-10-23T00:00:11;18.50;66.70
40868;DHT22;26586;50.708;22.412;2022-10-23T00:02:57;18.40;69.10
40868;DHT22;26586;50.708;22.412;2022-10-23T00:05:25;18.50;67.70
40868;DHT22;26586;50.708;22.412;2022-10-23T00:07:54;18.50;67.60
40868;DHT22;26586;50.708;22.412;2022-10-23T00:10:22;18.40;67.00
40868;DHT22;26586;50.708;22.412;2022-10-23T00:12:49;18.40;66.70
40868;DHT22;26586;50.708;22.412;2022-10-23T00:15:18;18.50;67.20
40868;DHT22;26586;50.708;22.412;2022-10-23T00:17:44;18.40;68.40
40868;DHT22;26586;50.708;22.412;2022-10-23T00:20:11;18.40;68.40
40868;DHT22;26586;50.708;22.412;2022-10-23T00:22:38;18.40;68.10
40868;DHT22;26586;50.708;22.412;2022-10-23T00:25:05;18.40;67.70
40868;DHT22;26586;50.708;22.412;2022-10-23T00:27:32;18.40;69.70
40868;DHT22;26586;50.708;22.412;2022-10-23T00:29:58;18.40;70.00
40868;DHT22;26586;50.708;22.412;2022-10-23T00:32:26;18.40;70.80
40868;DHT22;26586;50.708;22.412;2022-10-23T00:34:53;18.40;69.50
40868;DHT22;26586;50.708;22.412;2022-10-23T00:37:19;18.40;70.60
40868;DHT22;26586;50.708;22.412;2022-10-23T00:39:45;18.40;69.70
40868;DHT22;26586;50.708;22.412;2022-10-23T00:42:15;18.50;70.40
40868;DHT22;26586;50.708;22.412;2022-10-23T00:47:08;18.40;70.50
40868;DHT22;26586;50.708;22.412;2022-10-23T00:49:35;18.40;70.90
40868;DHT22;26586;50.708;22.412;2022-10-23T00:52:05;18.40;69.50
40868;DHT22;26586;50.708;22.412;2022-10-23T00:54:35;18.40;69.40
40868;DHT22;26586;50.708;22.412;2022-10-23T00:57:05;18.40;70.60
40868;DHT22;26586;50.708;22.412;2022-10-23T00:59:32;18.40;69.20
40868;DHT22;26586;50.708;22.412;2022-10-23T01:01:59;18.40;69.10
40868;DHT22;26586;50.708;22.412;2022-10-23T01:04:26;18.40;69.70
40868;DHT22;26586;50.708;22.412;2022-10-23T01:09:30;18.40;68.80
40868;DHT22;26586;50.708;22.412;2022-10-23T01:12:34;18.40;69.60
40868;DHT22;26586;50.708;22.412;2022-10-23T01:15:16;18.40;71.40
40868;DHT22;26586;50.708;22.412;2022-10-23T01:20:42;18.40;70.30
40868;DHT22;26586;50.708;22.412;2022-10-23T01:23:41;18.40;71.00
40868;DHT22;26586;50.708;22.412;2022-10-23T01:28:57;18.40;72.30
40868;DHT22;26586;50.708;22.412;2022-10-23T01:31:33;18.40;72.60
40868;DHT22;26586;50.708;22.412;2022-10-23T01:34:12;18.40;72.00
40868;DHT22;26586;50.708;22.412;2022-10-23T01:36:41;18.40;71.60
40868;DHT22;26586;50.708;22.412;2022-10-23T01:39:26;18.40;72.30
40868;DHT22;26586;50.708;22.412;2022-10-23T01:41:58;18.40;71.40
40868;DHT22;26586;50.708;22.412;2022-10-23T01:45:05;18.40;71.10
40868;DHT22;26586;50.708;22.412;2022-10-23T01:47:27;18.40;74.60
40868;DHT22;26586;50.708;22.412;2022-10-23T01:49:55;18.40;73.10
40868;DHT22;26586;50.708;22.412;2022-10-23T01:52:23;18.40;72.80
40868;DHT22;26586;50.708;22.412;2022-10-23T01:54:50;18.40;72.30
40868;DHT22;26586;50.708;22.412;2022-10-23T01:57:20;18.40;74.40
40868;DHT22;26586;50.708;22.412;2022-10-23T01:59:54;18.40;73.50
40868;DHT22;26586;50.708;22.412;2022-10-23T02:02:22;18.40;72.60
40868;DHT22;26586;50.708;22.412;2022-10-23T02:04:52;18.40;72.80
40868;DHT22;26586;50.708;22.412;2022-10-23T02:07:20;18.40;72.40
40868;DHT22;26586;50.708;22.412;2022-10-23T02:09:47;18.40;72.20
40868;DHT22;26586;50.708;22.412;2022-10-23T02:12:31;18.40;73.20
40868;DHT22;26586;50.708;22.412;2022-10-23T02:18:05;18.40;72.30
40868;DHT22;26586;50.708;22.412;2022-10-23T02:20:45;18.40;72.50
40868;DHT22;26586;50.708;22.412;2022-10-23T02:25:49;18.40;71.50
40868;DHT22;26586;50.708;22.412;2022-10-23T02:28:20;18.40;71.20
40868;DHT22;26586;50.708;22.412;2022-10-23T02:30:48;18.40;72.50
40868;DHT22;26586;50.708;22.412;2022-10-23T02:33:16;18.40;72.10
40868;DHT22;26586;50.708;22.412;2022-10-23T02:35:44;18.40;71.40
40868;DHT22;26586;50.708;22.412;2022-10-23T02:38:39;18.40;71.10
40868;DHT22;26586;50.708;22.412;2022-10-23T02:49:52;18.40;72.20
40868;DHT22;26586;50.708;22.412;2022-10-23T03:02:39;18.40;72.10
40868;DHT22;26586;50.708;22.412;2022-10-23T03:05:10;18.40;73.20
40868;DHT22;26586;50.708;22.412;2022-10-23T03:07:38;18.40;71.80
40868;DHT22;26586;50.708;22.412;2022-10-23T03:10:07;18.40;71.60
40868;DHT22;26586;50.708;22.412;2022-10-23T03:12:33;18.40;71.60
40868;DHT22;26586;50.708;22.412;2022-10-23T03:15:00;18.40;72.40
40868;DHT22;26586;50.708;22.412;2022-10-23T03:17:26;18.40;71.10
40868;DHT22;26586;50.708;22.412;2022-10-23T03:19:52;18.40;72.00
40868;DHT22;26586;50.708;22.412;2022-10-23T03:22:18;18.40;72.40
40868;DHT22;26586;50.708;22.412;2022-10-23T03:24:45;18.40;71.60
40868;DHT22;26586;50.708;22.412;2022-10-23T03:27:11;18.40;71.40
40868;DHT22;26586;50.708;22.412;2022-10-23T03:29:37;18.40;71.90
40868;DHT22;26586;50.708;22.412;2022-10-23T03:32:04;18.40;71.20
40868;DHT22;26586;50.708;22.412;2022-10-23T03:34:30;18.40;71.80
40868;DHT22;26586;50.708;22.412;2022-10-23T03:36:56;18.40;71.60
40868;DHT22;26586;50.708;22.412;2022-10-23T03:39:22;18.50;72.10
40868;DHT22;26586;50.708;22.412;2022-10-23T03:41:48;18.40;71.60
40868;DHT22;26586;50.708;22.412;2022-10-23T03:44:15;18.50;71.40
40868;DHT22;26586;50.708;22.412;2022-10-23T03:46:41;18.40;72.20
40868;DHT22;26586;50.708;22.412;2022-10-23T03:49:07;18.40;71.50
40868;DHT22;26586;50.708;22.412;2022-10-23T03:51:33;18.50;72.60
40868;DHT22;26586;50.708;22.412;2022-10-23T03:53:59;18.50;72.40
40868;DHT22;26586;50.708;22.412;2022-10-23T03:56:26;18.50;71.40
40868;DHT22;26586;50.708;22.412;2022-10-23T03:58:52;18.40;71.20
40868;DHT22;26586;50.708;22.412;2022-10-23T04:01:18;18.50;71.20
40868;DHT22;26586;50.708;22.412;2022-10-23T04:03:44;18.40;70.90
40868;DHT22;26586;50.708;22.412;2022-10-23T04:06:11;18.50;70.60
40868;DHT22;26586;50.708;22.412;2022-10-23T04:08:37;18.40;71.10
40868;DHT22;26586;50.708;22.412;2022-10-23T04:11:03;18.40;71.00
40868;DHT22;26586;50.708;22.412;2022-10-23T04:13:29;18.50;70.80
40868;DHT22;26586;50.708;22.412;2022-10-23T04:15:56;18.50;70.90
40868;DHT22;26586;50.708;22.412;2022-10-23T04:18:22;18.50;71.50
40868;DHT22;26586;50.708;22.412;2022-10-23T04:20:49;18.40;70.80
40868;DHT22;26586;50.708;22.412;2022-10-23T04:23:15;18.50;71.30
40868;DHT22;26586;50.708;22.412;2022-10-23T04:25:42;18.50;71.30
40868;DHT22;26586;50.708;22.412;2022-10-23T04:28:08;18.50;71.00
40868;DHT22;26586;50.708;22.412;2022-10-23T04:30:34;18.50;70.60
40868;DHT22;26586;50.708;22.412;2022-10-23T04:33:00;18.50;71.10
40868;DHT22;26586;50.708;22.412;2022-10-23T04:35:27;18.50;71.50
40868;DHT22;26586;50.708;22.412;2022-10-23T04:37:53;18.50;72.10
40868;DHT22;26586;50.708;22.412;2022-10-23T04:40:19;18.50;71.50
40868;DHT22;26586;50.708;22.412;2022-10-23T04:42:45;18.50;72.40
40868;DHT22;26586;50.708;22.412;2022-10-23T04:45:12;18.50;72.40
40868;DHT22;26586;50.708;22.412;2022-10-23T04:47:38;18.60;72.60
40868;DHT22;26586;50.708;22.412;2022-10-23T04:50:05;18.60;71.90
40868;DHT22;26586;50.708;22.412;2022-10-23T04:52:31;18.60;70.80
40868;DHT22;26586;50.708;22.412;2022-10-23T04:54:57;18.60;72.00
40868;DHT22;26586;50.708;22.412;2022-10-23T04:57:23;18.60;72.30
40868;DHT22;26586;50.708;22.412;2022-10-23T04:59:49;18.60;73.00
40868;DHT22;26586;50.708;22.412;2022-10-23T05:02:16;18.70;75.10
40868;DHT22;26586;50.708;22.412;2022-10-23T05:04:42;18.70;73.10
40868;DHT22;26586;50.708;22.412;2022-10-23T05:07:08;18.70;73.40
40868;DHT22;26586;50.708;22.412;2022-10-23T05:09:34;18.70;73.90
40868;DHT22;26586;50.708;22.412;2022-10-23T05:12:00;18.80;72.80
40868;DHT22;26586;50.708;22.412;2022-10-23T05:14:27;18.80;74.20
40868;DHT22;26586;50.708;22.412;2022-10-23T05:17:01;18.80;72.80
40868;DHT22;26586;50.708;22.412;2022-10-23T05:19:33;18.90;72.40
40868;DHT22;26586;50.708;22.412;2022-10-23T05:22:01;18.90;73.40
40868;DHT22;26586;50.708;22.412;2022-10-23T05:24:29;18.90;73.60
40868;DHT22;26586;50.708;22.412;2022-10-23T05:26:55;18.90;73.60
40868;DHT22;26586;50.708;22.412;2022-10-23T05:29:22;19.00;73.10
40868;DHT22;26586;50.708;22.412;2022-10-23T05:31:50;19.00;73.50
40868;DHT22;26586;50.708;22.412;2022-10-23T05:34:21;19.00;73.70
40868;DHT22;26586;50.708;22.412;2022-10-23T05:36:49;19.00;74.70
40868;DHT22;26586;50.708;22.412;2022-10-23T05:39:15;19.00;73.10
40868;DHT22;26586;50.708;22.412;2022-10-23T05:41:41;19.10;73.40
40868;DHT22;26586;50.708;22.412;2022-10-23T05:44:07;19.10;72.90
40868;DHT22;26586;50.708;22.412;2022-10-23T05:46:34;19.20;72.30
40868;DHT22;26586;50.708;22.412;2022-10-23T05:49:00;19.10;72.90
40868;DHT22;26586;50.708;22.412;2022-10-23T05:51:26;19.20;73.30
40868;DHT22;26586;50.708;22.412;2022-10-23T05:53:54;19.20;72.70
40868;DHT22;26586;50.708;22.412;2022-10-23T05:56:20;19.20;72.10
40868;DHT22;26586;50.708;22.412;2022-10-23T05:58:46;19.30;72.70
40868;DHT22;26586;50.708;22.412;2022-10-23T06:01:13;19.30;72.70
40868;DHT22;26586;50.708;22.412;2022-10-23T06:03:40;19.30;72.40
40868;DHT22;26586;50.708;22.412;2022-10-23T06:06:06;19.30;72.20
40868;DHT22;26586;50.708;22.412;2022-10-23T06:08:33;19.30;71.90
40868;DHT22;26586;50.708;22.412;2022-10-23T06:11:11;19.30;71.50
40868;DHT22;26586;50.708;22.412;2022-10-23T06:13:38;19.40;71.30
40868;DHT22;26586;50.708;22.412;2022-10-23T06:16:11;19.40;71.90
40868;DHT22;26586;50.708;22.412;2022-10-23T06:18:39;19.40;71.40
40868;DHT22;26586;50.708;22.412;2022-10-23T06:21:06;19.40;71.30
40868;DHT22;26586;50.708;22.412;2022-10-23T06:23:34;19.40;70.70
40868;DHT22;26586;50.708;22.412;2022-10-23T06:26:00;19.40;70.50
40868;DHT22;26586;50.708;22.412;2022-10-23T06:28:27;19.40;70.40
40868;DHT22;26586;50.708;22.412;2022-10-23T06:30:53;19.50;70.50
40868;DHT22;26586;50.708;22.412;2022-10-23T06:33:19;19.50;70.80
40868;DHT22;26586;50.708;22.412;2022-10-23T06:35:46;19.50;71.40
40868;DHT22;26586;50.708;22.412;2022-10-23T06:38:13;19.50;71.40
40868;DHT22;26586;50.708;22.412;2022-10-23T06:40:39;19.50;69.90
40868;DHT22;26586;50.708;22.412;2022-10-23T06:43:06;19.50;69.30
40868;DHT22;26586;50.708;22.412;2022-10-23T06:45:33;19.60;69.80
40868;DHT22;26586;50.708;22.412;2022-10-23T06:48:00;19.50;70.20
40868;DHT22;26586;50.708;22.412;2022-10-23T06:50:27;19.50;70.50
40868;DHT22;26586;50.708;22.412;2022-10-23T06:52:55;19.50;70.10
40868;DHT22;26586;50.708;22.412;2022-10-23T06:55:22;19.50;68.70
40868;DHT22;26586;50.708;22.412;2022-10-23T06:57:48;19.50;68.60
40868;DHT22;26586;50.708;22.412;2022-10-23T07:00:15;19.60;69.10
40868;DHT22;26586;50.708;22.412;2022-10-23T07:02:41;19.60;69.00
40868;DHT22;26586;50.708;22.412;2022-10-23T07:05:07;19.60;68.80
40868;DHT22;26586;50.708;22.412;2022-10-23T07:07:33;19.60;68.90
40868;DHT22;26586;50.708;22.412;2022-10-23T07:10:00;19.60;69.20
40868;DHT22;26586;50.708;22.412;2022-10-23T07:12:27;19.60;68.80
40868;DHT22;26586;50.708;22.412;2022-10-23T07:14:54;19.60;68.80
40868;DHT22;26586;50.708;22.412;2022-10-23T07:17:20;19.60;68.50
40868;DHT22;26586;50.708;22.412;2022-10-23T07:19:46;19.60;68.00
40868;DHT22;26586;50.708;22.412;2022-10-23T07:22:13;19.60;68.90
40868;DHT22;26586;50.708;22.412;2022-10-23T07:24:39;19.60;68.90
40868;DHT22;26586;50.708;22.412;2022-10-23T07:27:05;19.60;68.80
40868;DHT22;26586;50.708;22.412;2022-10-23T07:29:41;19.60;69.40
40868;DHT22;26586;50.708;22.412;2022-10-23T07:32:18;19.60;68.60
40868;DHT22;26586;50.708;22.412;2022-10-23T07:34:45;19.60;68.60
40868;DHT22;26586;50.708;22.412;2022-10-23T07:37:14;19.60;68.40
40868;DHT22;26586;50.708;22.412;2022-10-23T07:39:40;19.60;68.80
40868;DHT22;26586;50.708;22.412;2022-10-23T07:42:08;19.60;68.60
40868;DHT22;26586;50.708;22.412;2022-10-23T07:44:34;19.60;67.70
40868;DHT22;26586;50.708;22.412;2022-10-23T07:47:00;19.60;68.40
40868;DHT22;26586;50.708;22.412;2022-10-23T07:49:27;19.60;68.00
40868;DHT22;26586;50.708;22.412;2022-10-23T07:51:53;19.60;67.50
40868;DHT22;26586;50.708;22.412;2022-10-23T07:54:19;19.60;67.40
40868;DHT22;26586;50.708;22.412;2022-10-23T07:56:45;19.60;68.30
40868;DHT22;26586;50.708;22.412;2022-10-23T07:59:14;19.60;68.30
40868;DHT22;26586;50.708;22.412;2022-10-23T08:01:41;19.60;67.90
40868;DHT22;26586;50.708;22.412;2022-10-23T08:04:09;19.60;67.90
40868;DHT22;26586;50.708;22.412;2022-10-23T08:06:35;19.60;67.10
40868;DHT22;26586;50.708;22.412;2022-10-23T08:09:06;19.60;67.40
40868;DHT22;26586;50.708;22.412;2022-10-23T08:11:33;19.50;67.70
40868;DHT22;26586;50.708;22.412;2022-10-23T08:14:04;19.50;67.40
40868;DHT22;26586;50.708;22.412;2022-10-23T08:16:35;19.50;67.30
40868;DHT22;26586;50.708;22.412;2022-10-23T08:19:12;19.50;67.30
40868;DHT22;26586;50.708;22.412;2022-10-23T08:21:39;19.60;67.90
40868;DHT22;26586;50.708;22.412;2022-10-23T08:24:05;19.50;68.90
40868;DHT22;26586;50.708;22.412;2022-10-23T08:26:32;19.50;67.60
40868;DHT22;26586;50.708;22.412;2022-10-23T08:28:58;19.50;67.30
40868;DHT22;26586;50.708;22.412;2022-10-23T08:31:26;19.50;67.10
40868;DHT22;26586;50.708;22.412;2022-10-23T08:33:53;19.50;67.60
40868;DHT22;26586;50.708;22.412;2022-10-23T08:36:21;19.50;68.00
40868;DHT22;26586;50.708;22.412;2022-10-23T08:38:47;19.50;67.40
40868;DHT22;26586;50.708;22.412;2022-10-23T08:46:40;19.50;70.30
40868;DHT22;26586;50.708;22.412;2022-10-23T08:51:56;19.50;68.70
40868;DHT22;26586;50.708;22.412;2022-10-23T08:55:12;19.50;68.70
40868;DHT22;26586;50.708;22.412;2022-10-23T08:57:15;19.50;68.40
40868;DHT22;26586;50.708;22.412;2022-10-23T09:02:20;19.50;68.00
40868;DHT22;26586;50.708;22.412;2022-10-23T09:04:51;19.50;68.20
40868;DHT22;26586;50.708;22.412;2022-10-23T09:12:31;19.50;67.70
40868;DHT22;26586;50.708;22.412;2022-10-23T09:18:15;19.50;67.50
40868;DHT22;26586;50.708;22.412;2022-10-23T09:20:45;19.50;68.30
40868;DHT22;26586;50.708;22.412;2022-10-23T09:23:21;19.60;69.00
40868;DHT22;26586;50.708;22.412;2022-10-23T09:25:49;19.60;69.70
40868;DHT22;26586;50.708;22.412;2022-10-23T09:28:25;19.60;69.80
40868;DHT22;26586;50.708;22.412;2022-10-23T09:30:52;19.60;69.50
40868;DHT22;26586;50.708;22.412;2022-10-23T09:33:24;19.60;68.80
40868;DHT22;26586;50.708;22.412;2022-10-23T09:36:01;19.60;70.10
40868;DHT22;26586;50.708;22.412;2022-10-23T09:41:10;19.70;69.70
40868;DHT22;26586;50.708;22.412;2022-10-23T09:43:38;19.70;69.10
40868;DHT22;26586;50.708;22.412;2022-10-23T09:46:05;19.70;69.00
40868;DHT22;26586;50.708;22.412;2022-10-23T09:48:33;19.70;68.90
40868;DHT22;26586;50.708;22.412;2022-10-23T09:51:19;19.70;68.10
40868;DHT22;26586;50.708;22.412;2022-10-23T09:53:56;19.70;67.90
40868;DHT22;26586;50.708;22.412;2022-10-23T09:56:35;19.80;68.20
40868;DHT22;26586;50.708;22.412;2022-10-23T09:59:19;19.80;68.70
40868;DHT22;26586;50.708;22.412;2022-10-23T10:01:51;19.80;69.20
40868;DHT22;26586;50.708;22.412;2022-10-23T10:04:18;19.90;69.00
40868;DHT22;26586;50.708;22.412;2022-10-23T10:06:44;19.90;68.10
40868;DHT22;26586;50.708;22.412;2022-10-23T10:09:13;19.90;68.00
40868;DHT22;26586;50.708;22.412;2022-10-23T10:11:53;20.00;67.50
40868;DHT22;26586;50.708;22.412;2022-10-23T10:14:38;20.00;66.90
40868;DHT22;26586;50.708;22.412;2022-10-23T10:17:42;20.10;67.30
40868;DHT22;26586;50.708;22.412;2022-10-23T10:23:05;20.10;66.70
40868;DHT22;26586;50.708;22.412;2022-10-23T10:39:35;20.30;64.80
40868;DHT22;26586;50.708;22.412;2022-10-23T10:55:36;20.30;62.70
40868;DHT22;26586;50.708;22.412;2022-10-23T10:58:04;20.40;62.60
40868;DHT22;26586;50.708;22.412;2022-10-23T11:00:35;20.30;62.30
40868;DHT22;26586;50.708;22.412;2022-10-23T11:05:38;20.40;62.60
40868;DHT22;26586;50.708;22.412;2022-10-23T11:10:58;20.30;62.30
40868;DHT22;26586;50.708;22.412;2022-10-23T11:13:36;20.40;62.40
40868;DHT22;26586;50.708;22.412;2022-10-23T11:18:45;20.40;63.00
40868;DHT22;26586;50.708;22.412;2022-10-23T11:30:39;20.40;63.40
40868;DHT22;26586;50.708;22.412;2022-10-23T11:33:34;20.40;64.10
40868;DHT22;26586;50.708;22.412;2022-10-23T11:36:19;20.40;64.00
40868;DHT22;26586;50.708;22.412;2022-10-23T11:39:14;20.40;64.60
40868;DHT22;26586;50.708;22.412;2022-10-23T11:41:55;20.40;64.60
40868;DHT22;26586;50.708;22.412;2022-10-23T11:47:06;20.40;64.40
40868;DHT22;26586;50.708;22.412;2022-10-23T11:49:49;20.40;64.60
40868;DHT22;26586;50.708;22.412;2022-10-23T11:52:24;20.40;63.50
40868;DHT22;26586;50.708;22.412;2022-10-23T11:55:01;20.40;63.30
40868;DHT22;26586;50.708;22.412;2022-10-23T11:57:28;20.40;63.30
40868;DHT22;26586;50.708;22.412;2022-10-23T11:59:55;20.40;63.40
40868;DHT22;26586;50.708;22.412;2022-10-23T12:05:00;20.50;63.20
40868;DHT22;26586;50.708;22.412;2022-10-23T12:07:28;20.50;62.30
40868;DHT22;26586;50.708;22.412;2022-10-23T12:09:59;20.50;62.30
40868;DHT22;26586;50.708;22.412;2022-10-23T12:12:35;20.50;62.50
40868;DHT22;26586;50.708;22.412;2022-10-23T12:17:42;20.50;62.20
40868;DHT22;26586;50.708;22.412;2022-10-23T12:20:15;20.50;62.00
40868;DHT22;26586;50.708;22.412;2022-10-23T12:28:27;20.50;62.30
40868;DHT22;26586;50.708;22.412;2022-10-23T12:36:37;20.50;62.40
40868;DHT22;26586;50.708;22.412;2022-10-23T12:39:27;20.60;61.80
40868;DHT22;26586;50.708;22.412;2022-10-23T12:41:54;20.50;61.90
40868;DHT22;26586;50.708;22.412;2022-10-23T12:44:21;20.60;61.80
40868;DHT22;26586;50.708;22.412;2022-10-23T12:46:52;20.60;61.20
40868;DHT22;26586;50.708;22.412;2022-10-23T12:49:22;20.50;62.00
40868;DHT22;26586;50.708;22.412;2022-10-23T12:51:57;20.50;61.80
40868;DHT22;26586;50.708;22.412;2022-10-23T12:54:25;20.50;62.60
40868;DHT22;26586;50.708;22.412;2022-10-23T12:56:52;20.50;62.60
40868;DHT22;26586;50.708;22.412;2022-10-23T12:59:39;20.50;63.20
40868;DHT22;26586;50.708;22.412;2022-10-23T13:02:33;20.50;63.50
40868;DHT22;26586;50.708;22.412;2022-10-23T13:05:02;20.50;64.20
40868;DHT22;26586;50.708;22.412;2022-10-23T13:07:34;20.50;63.60
40868;DHT22;26586;50.708;22.412;2022-10-23T13:10:03;20.50;64.90
40868;DHT22;26586;50.708;22.412;2022-10-23T13:12:34;20.50;64.80
40868;DHT22;26586;50.708;22.412;2022-10-23T13:15:13;20.50;65.30
40868;DHT22;26586;50.708;22.412;2022-10-23T13:20:28;20.50;65.70
40868;DHT22;26586;50.708;22.412;2022-10-23T13:22:59;20.50;63.40
40868;DHT22;26586;50.708;22.412;2022-10-23T13:25:31;20.50;63.50
40868;DHT22;26586;50.708;22.412;2022-10-23T13:30:36;20.50;65.50
40868;DHT22;26586;50.708;22.412;2022-10-23T13:35:57;20.60;66.90
40868;DHT22;26586;50.708;22.412;2022-10-23T13:38:30;20.60;66.40
40868;DHT22;26586;50.708;22.412;2022-10-23T13:41:01;20.50;66.80
40868;DHT22;26586;50.708;22.412;2022-10-23T13:43:29;20.60;67.10
40868;DHT22;26586;50.708;22.412;2022-10-23T13:45:59;20.60;67.70
40868;DHT22;26586;50.708;22.412;2022-10-23T13:48:26;20.60;67.60
40868;DHT22;26586;50.708;22.412;2022-10-23T13:50:53;20.60;67.20
40868;DHT22;26586;50.708;22.412;2022-10-23T13:53:22;20.60;67.30
40868;DHT22;26586;50.708;22.412;2022-10-23T13:55:50;20.60;66.70
40868;DHT22;26586;50.708;22.412;2022-10-23T13:58:17;20.60;66.10
40868;DHT22;26586;50.708;22.412;2022-10-23T14:00:45;20.60;66.60
40868;DHT22;26586;50.708;22.412;2022-10-23T14:03:12;20.60;66.80
40868;DHT22;26586;50.708;22.412;2022-10-23T14:05:38;20.60;66.50
40868;DHT22;26586;50.708;22.412;2022-10-23T14:08:05;20.60;66.90
40868;DHT22;26586;50.708;22.412;2022-10-23T14:10:31;20.60;66.80
40868;DHT22;26586;50.708;22.412;2022-10-23T14:12:58;20.60;66.60
40868;DHT22;26586;50.708;22.412;2022-10-23T14:15:24;20.60;66.70
40868;DHT22;26586;50.708;22.412;2022-10-23T14:17:50;20.60;67.00
40868;DHT22;26586;50.708;22.412;2022-10-23T14:20:17;20.60;67.40
40868;DHT22;26586;50.708;22.412;2022-10-23T14:22:43;20.70;67.70
40868;DHT22;26586;50.708;22.412;2022-10-23T14:25:09;20.70;67.90
40868;DHT22;26586;50.708;22.412;2022-10-23T14:27:35;20.70;68.20
40868;DHT22;26586;50.708;22.412;2022-10-23T14:30:03;20.60;66.40
40868;DHT22;26586;50.708;22.412;2022-10-23T14:32:30;20.60;65.80
40868;DHT22;26586;50.708;22.412;2022-10-23T14:34:56;20.60;66.70
40868;DHT22;26586;50.708;22.412;2022-10-23T14:37:23;20.70;66.30
40868;DHT22;26586;50.708;22.412;2022-10-23T14:39:49;20.60;66.40
40868;DHT22;26586;50.708;22.412;2022-10-23T14:42:15;20.60;66.70
40868;DHT22;26586;50.708;22.412;2022-10-23T14:44:41;20.70;66.50
40868;DHT22;26586;50.708;22.412;2022-10-23T14:47:08;20.60;66.70
40868;DHT22;26586;50.708;22.412;2022-10-23T14:49:34;20.60;66.40
40868;DHT22;26586;50.708;22.412;2022-10-23T14:52:01;20.60;66.40
40868;DHT22;26586;50.708;22.412;2022-10-23T14:54:27;20.60;66.50
40868;DHT22;26586;50.708;22.412;2022-10-23T14:56:54;20.60;66.70
40868;DHT22;26586;50.708;22.412;2022-10-23T14:59:20;20.60;66.70
40868;DHT22;26586;50.708;22.412;2022-10-23T15:01:46;20.60;66.70
40868;DHT22;26586;50.708;22.412;2022-10-23T15:04:13;20.60;66.50
40868;DHT22;26586;50.708;22.412;2022-10-23T15:06:39;20.60;66.60
40868;DHT22;26586;50.708;22.412;2022-10-23T15:09:07;20.60;66.30
40868;DHT22;26586;50.708;22.412;2022-10-23T15:11:33;20.60;65.70
40868;DHT22;26586;50.708;22.412;2022-10-23T15:14:00;20.60;65.70
40868;DHT22;26586;50.708;22.412;2022-10-23T15:16:26;20.60;65.90
40868;DHT22;26586;50.708;22.412;2022-10-23T15:18:53;20.60;65.30
40868;DHT22;26586;50.708;22.412;2022-10-23T15:21:19;20.60;64.70
40868;DHT22;26586;50.708;22.412;2022-10-23T15:23:46;20.50;64.40
40868;DHT22;26586;50.708;22.412;2022-10-23T15:26:17;20.50;63.70
40868;DHT22;26586;50.708;22.412;2022-10-23T15:28:53;20.50;63.30
40868;DHT22;26586;50.708;22.412;2022-10-23T15:33:56;20.50;62.40
40868;DHT22;26586;50.708;22.412;2022-10-23T15:36:22;20.50;62.40
40868;DHT22;26586;50.708;22.412;2022-10-23T15:38:48;20.50;62.40
40868;DHT22;26586;50.708;22.412;2022-10-23T15:41:17;20.40;62.10
40868;DHT22;26586;50.708;22.412;2022-10-23T15:43:45;20.50;62.30
40868;DHT22;26586;50.708;22.412;2022-10-23T15:46:15;20.50;62.30
40868;DHT22;26586;50.708;22.412;2022-10-23T15:48:44;20.40;62.00
40868;DHT22;26586;50.708;22.412;2022-10-23T15:51:10;20.40;62.20
40868;DHT22;26586;50.708;22.412;2022-10-23T15:56:50;20.40;62.10
40868;DHT22;26586;50.708;22.412;2022-10-23T15:59:21;20.40;62.10
40868;DHT22;26586;50.708;22.412;2022-10-23T16:01:53;20.40;62.10
40868;DHT22;26586;50.708;22.412;2022-10-23T16:04:20;20.40;61.60
40868;DHT22;26586;50.708;22.412;2022-10-23T16:06:47;20.40;61.60
40868;DHT22;26586;50.708;22.412;2022-10-23T16:09:18;20.30;61.40
40868;DHT22;26586;50.708;22.412;2022-10-23T16:11:44;20.30;62.00
40868;DHT22;26586;50.708;22.412;2022-10-23T16:14:20;20.30;61.80
40868;DHT22;26586;50.708;22.412;2022-10-23T16:16:49;20.30;62.40
40868;DHT22;26586;50.708;22.412;2022-10-23T16:19:21;20.30;62.60
40868;DHT22;26586;50.708;22.412;2022-10-23T16:21:48;20.30;62.60
40868;DHT22;26586;50.708;22.412;2022-10-23T16:24:15;20.30;62.40
40868;DHT22;26586;50.708;22.412;2022-10-23T16:26:44;20.30;62.70
40868;DHT22;26586;50.708;22.412;2022-10-23T16:29:20;20.30;62.10
40868;DHT22;26586;50.708;22.412;2022-10-23T16:31:48;20.30;62.10
40868;DHT22;26586;50.708;22.412;2022-10-23T16:34:15;20.30;61.90
40868;DHT22;26586;50.708;22.412;2022-10-23T16:36:42;20.20;61.70
40868;DHT22;26586;50.708;22.412;2022-10-23T16:39:19;20.20;61.10
40868;DHT22;26586;50.708;22.412;2022-10-23T16:41:45;20.30;61.10
40868;DHT22;26586;50.708;22.412;2022-10-23T16:44:12;20.30;60.90
40868;DHT22;26586;50.708;22.412;2022-10-23T16:46:38;20.30;61.30
40868;DHT22;26586;50.708;22.412;2022-10-23T16:49:05;20.20;61.00
40868;DHT22;26586;50.708;22.412;2022-10-23T16:51:33;20.20;60.60
40868;DHT22;26586;50.708;22.412;2022-10-23T16:54:00;20.20;60.40
40868;DHT22;26586;50.708;22.412;2022-10-23T16:56:27;20.20;60.10
40868;DHT22;26586;50.708;22.412;2022-10-23T16:58:58;20.20;60.20
40868;DHT22;26586;50.708;22.412;2022-10-23T17:01:31;20.20;60.10
40868;DHT22;26586;50.708;22.412;2022-10-23T17:04:01;20.10;60.30
40868;DHT22;26586;50.708;22.412;2022-10-23T17:06:34;20.10;60.40
40868;DHT22;26586;50.708;22.412;2022-10-23T17:09:02;20.10;60.20
40868;DHT22;26586;50.708;22.412;2022-10-23T17:11:37;20.10;60.00
40868;DHT22;26586;50.708;22.412;2022-10-23T17:14:16;20.10;59.80
40868;DHT22;26586;50.708;22.412;2022-10-23T17:16:51;20.10;59.60
40868;DHT22;26586;50.708;22.412;2022-10-23T17:19:26;20.10;59.20
40868;DHT22;26586;50.708;22.412;2022-10-23T17:22:03;20.00;59.40
40868;DHT22;26586;50.708;22.412;2022-10-23T17:24:36;20.00;59.40
40868;DHT22;26586;50.708;22.412;2022-10-23T17:27:03;20.00;59.60
40868;DHT22;26586;50.708;22.412;2022-10-23T17:29:33;20.00;59.20
40868;DHT22;26586;50.708;22.412;2022-10-23T17:31:59;20.00;59.70
40868;DHT22;26586;50.708;22.412;2022-10-23T17:34:26;20.00;60.10
40868;DHT22;26586;50.708;22.412;2022-10-23T17:36:54;20.00;60.00
40868;DHT22;26586;50.708;22.412;2022-10-23T17:39:26;20.00;60.00
40868;DHT22;26586;50.708;22.412;2022-10-23T17:41:59;20.00;60.10
40868;DHT22;26586;50.708;22.412;2022-10-23T17:44:28;20.00;60.20
40868;DHT22;26586;50.708;22.412;2022-10-23T17:46:54;19.90;60.50